Nearby METAR Reports

 

KPIA - Peoria, Illinois, USA
Distance from station: SSW 11mi, 18km
Updated: 06/19/2018 2:54am
Mostly cloudy
Mostly cloudy
 Wind from SSW
Wind: SSW 6 mph , 9 km/h
Temperature: 79°F , 26°C
Dew Point: 73°F , 23°C
Humidity: 84%
Barometer: 29.93 inHg , 1013.5 hPa
Clouds: Mostly cloudy
Visibility: 10 miles , 16 km
Cloud details: Mostly cloudy 6000 ft
2018/06/19 07:54 KPIA 190754Z 21005KT 10SM BKN060 26/23 A2993 RMK AO2 SLP130 T02610233
KC75 - Lacon, Illinois, USA
Distance from station: NE 18mi, 30km
Updated: 06/19/2018 2:55am
Clear
Clear
 Wind from SSE
Wind: SSE 6 mph , 9 km/h
Temperature: 73°F , 23°C
Dew Point: 72°F , 22°C
Humidity: 94%
Barometer: 29.94 inHg , 1013.9 hPa
Clouds: Clear
Visibility: 10 miles , 16 km
2018/06/19 07:55 KC75 190755Z AUTO 16005KT 10SM CLR 23/22 A2994 RMK AO2 T02300216
 
KGBG - Galesburg, Illinois, USA
Distance from station: W 43mi, 69km
Updated: 06/19/2018 2:55am
Mostly cloudy
Mostly cloudy
 Wind from SW
Wind: SW 7 mph , 11 km/h
Temperature: 77°F , 25°C
Dew Point: 70°F , 21°C
Humidity: 79%
Barometer: 29.95 inHg , 1014.2 hPa
Clouds: Mostly cloudy
Visibility: 10 miles , 16 km
Cloud details: Mostly cloudy 6000 ft
2018/06/19 07:55 KGBG 190755Z AUTO 23006KT 10SM BKN060 25/21 A2995 RMK AO2 T02460212
KBMI - Bloomington/Norm, Illinois, USA
Distance from station: ESE 44mi, 71km
Updated: 06/19/2018 2:56am
Mostly cloudy
Mostly cloudy
 Wind from ENE
Wind: ENE 7 mph , 11 km/h
Temperature: 75°F , 24°C
Dew Point: 70°F , 21°C
Humidity: 83%
Barometer: 29.99 inHg , 1015.6 hPa
Clouds: Mostly cloudy
Visibility: 10 miles , 16 km
Cloud details: Mostly cloudy 5500 ft
2018/06/19 07:56 KBMI 190756Z AUTO 07006KT 10SM BKN055 24/21 A2999 RMK AO2 SLP161 T02390211
 
KVYS - Peru, Illinois, USA
Distance from station: NNE 44mi, 71km
Updated: 06/19/2018 2:55am
Partly cloudy
Partly cloudy
 Wind from SE
Wind: SE 5 mph , 7 km/h
Temperature: 75°F , 24°C
Dew Point: 73°F , 23°C
Humidity: 94%
Barometer: 29.96 inHg , 1014.6 hPa
Clouds: Partly cloudy
Visibility: 10 miles , 16 km
Cloud details: Partly cloudy 7000 ft
2018/06/19 07:55 KVYS 190755Z AUTO 14004KT 10SM SCT070 24/23 A2996 RMK AO2 T02400225
KAAA - Lincoln, Illinois, USA
Distance from station: SSE 48mi, 77km
Updated: 06/19/2018 2:50am
Clear
Clear
 Wind from SW
Wind: SW 3 mph , 6 km/h
Temperature: 81°F , 27°C
Heat Index: 86°F , 30°C
Dew Point: 73°F , 23°C
Humidity: 79%
Barometer: 29.95 inHg , 1014.2 hPa
Clouds: Clear
Visibility: 10 miles , 16 km
2018/06/19 07:50 KAAA 190750Z AUTO 22003KT 10SM CLR 27/23 A2995 RMK AO2 T02690230
 
KPNT - Pontiac, Illinois, USA
Distance from station: E 53mi, 85km
Updated: 06/19/2018 2:55am
Partly cloudy
Partly cloudy
 Wind from ESE
Wind: ESE 3 mph , 6 km/h
Temperature: 73°F , 23°C
Dew Point: 73°F , 23°C
Humidity: 100%
Barometer: 29.97 inHg , 1014.9 hPa
Clouds: Partly cloudy
Visibility: 10 miles , 16 km
Cloud details: Partly cloudy 5000 ft
2018/06/19 07:55 KPNT 190755Z AUTO 12003KT 10SM SCT050 23/23 A2997 RMK AO2 T02280225
KMQB - Macomb Muni, Illinois, USA
Distance from station: WSW 58mi, 93km
Updated: 06/19/2018 2:55am
Clear
Clear
 Wind from SW
Wind: SW 6 mph , 9 km/h
Temperature: 77°F , 25°C
Dew Point: 72°F , 22°C
Humidity: 83%
Barometer: 29.96 inHg , 1014.6 hPa
Clouds: Clear
Visibility: 10 miles , 16 km
2018/06/19 07:55 KMQB 190755Z AUTO 23005KT 10SM CLR 25/22 A2996 RMK AO2 T02450218
 
KMLI - Moline/Quad City, Illinois, USA
Distance from station: NW 64mi, 103km
Updated: 06/19/2018 2:52am
Clear
Clear
 Wind from NE
Wind: NE 6 mph , 9 km/h
Temperature: 75°F , 24°C
Dew Point: 72°F , 22°C
Humidity: 89%
Barometer: 29.92 inHg , 1013.2 hPa
Clouds: Clear
Visibility: 10 miles , 16 km
2018/06/19 07:52 KMLI 190752Z AUTO 05005KT 10SM CLR 24/22 A2992 RMK AO2 SLP127 T02440222
KSQI - Sterling Rockfal, Illinois, USA
Distance from station: N 64mi, 103km
Updated: 06/19/2018 2:56am
Few Clouds
Few Clouds
 Wind from E
Wind: E 6 mph , 9 km/h
Temperature: 72°F , 22°C
Dew Point: 72°F , 22°C
Humidity: 100%
Barometer: 29.95 inHg , 1014.2 hPa
Clouds: Few Clouds
Visibility: 10 miles , 16 km
Cloud details: Few Clouds 6000 ft
2018/06/19 07:56 KSQI 190756Z AUTO 10005KT 10SM FEW060 22/22 A2995 RMK AO2 SLP148 T02220217
 
KSPI - Springfield, Illinois, USA
Distance from station: S 67mi, 108km
Updated: 06/19/2018 2:52am
Clear
Clear
 Wind from SW
Wind: SW 7 mph , 11 km/h
Temperature: 81°F , 27°C
Heat Index: 86°F , 30°C
Dew Point: 73°F , 23°C
Humidity: 79%
Barometer: 29.96 inHg , 1014.6 hPa
Clouds: Clear
Visibility: 10 miles , 16 km
2018/06/19 07:52 KSPI 190752Z AUTO 22006KT 10SM CLR 27/23 A2996 RMK AO2 SLP138 T02670228
KDVN - Davenport/Quad C, Iowa, USA
Distance from station: NW 74mi, 120km
Updated: 06/19/2018 2:52am
Few Clouds
Few Clouds
 Wind from ENE
Wind: ENE 8 mph , 13 km/h
Temperature: 73°F , 23°C
Dew Point: 70°F , 21°C
Humidity: 89%
Barometer: 29.95 inHg , 1014.2 hPa
Clouds: Few Clouds
Cloud details: Few Clouds 5000 ft
2018/06/19 07:52 KDVN 190752Z AUTO 07007KT FEW050 23/21 A2995 RMK AO2 SLP131 T02280211 $